sensor_id;sensor_type;location;lat;lon;timestamp;temperature;humidity
76305;DHT22;65111;50.536;19.204;2023-02-10T00:01:50;-3274.20;70.50
76305;DHT22;65111;50.536;19.204;2023-02-10T00:04:16;-3274.40;70.60
76305;DHT22;65111;50.536;19.204;2023-02-10T00:06:42;-3274.60;70.40
76305;DHT22;65111;50.536;19.204;2023-02-10T00:09:11;-3274.50;70.20
76305;DHT22;65111;50.536;19.204;2023-02-10T00:11:38;-3274.70;70.10
76305;DHT22;65111;50.536;19.204;2023-02-10T00:14:23;-3274.90;69.90
76305;DHT22;65111;50.536;19.204;2023-02-10T00:16:50;-3274.70;69.90
76305;DHT22;65111;50.536;19.204;2023-02-10T00:19:17;-3274.80;69.40
76305;DHT22;65111;50.536;19.204;2023-02-10T00:21:43;-3274.70;69.60
76305;DHT22;65111;50.536;19.204;2023-02-10T00:24:09;-3274.90;69.60
76305;DHT22;65111;50.536;19.204;2023-02-10T00:26:35;-3274.90;69.70
76305;DHT22;65111;50.536;19.204;2023-02-10T00:29:02;-3274.70;69.70
76305;DHT22;65111;50.536;19.204;2023-02-10T00:31:28;-3274.70;69.90
76305;DHT22;65111;50.536;19.204;2023-02-10T00:33:54;-3274.70;69.80
76305;DHT22;65111;50.536;19.204;2023-02-10T00:36:20;-3274.60;69.90
76305;DHT22;65111;50.536;19.204;2023-02-10T00:38:47;-3274.70;70.00
76305;DHT22;65111;50.536;19.204;2023-02-10T00:41:18;-3274.60;70.10
76305;DHT22;65111;50.536;19.204;2023-02-10T00:43:45;-3274.70;70.30
76305;DHT22;65111;50.536;19.204;2023-02-10T00:46:13;-3274.50;70.40
76305;DHT22;65111;50.536;19.204;2023-02-10T00:48:39;-3274.50;70.90
76305;DHT22;65111;50.536;19.204;2023-02-10T00:51:05;-3274.40;71.00
76305;DHT22;65111;50.536;19.204;2023-02-10T00:53:32;-3274.40;71.10
76305;DHT22;65111;50.536;19.204;2023-02-10T00:55:59;-3274.50;71.00
76305;DHT22;65111;50.536;19.204;2023-02-10T00:58:25;-3274.50;71.10
76305;DHT22;65111;50.536;19.204;2023-02-10T01:00:52;-3274.30;71.50
76305;DHT22;65111;50.536;19.204;2023-02-10T01:03:18;-3274.40;71.50
76305;DHT22;65111;50.536;19.204;2023-02-10T01:05:44;-3274.30;71.50
76305;DHT22;65111;50.536;19.204;2023-02-10T01:08:14;-3274.30;71.80
76305;DHT22;65111;50.536;19.204;2023-02-10T01:10:41;-3274.40;71.90
76305;DHT22;65111;50.536;19.204;2023-02-10T01:13:09;-3274.40;71.80
76305;DHT22;65111;50.536;19.204;2023-02-10T01:15:35;-3274.40;71.90
76305;DHT22;65111;50.536;19.204;2023-02-10T01:18:01;-3274.30;72.00
76305;DHT22;65111;50.536;19.204;2023-02-10T01:20:27;-3274.40;72.10
76305;DHT22;65111;50.536;19.204;2023-02-10T01:22:53;-3274.50;71.80
76305;DHT22;65111;50.536;19.204;2023-02-10T01:25:19;-3274.40;71.90
76305;DHT22;65111;50.536;19.204;2023-02-10T01:27:45;-3274.60;71.70
76305;DHT22;65111;50.536;19.204;2023-02-10T01:30:12;-3274.70;71.70
76305;DHT22;65111;50.536;19.204;2023-02-10T01:32:37;-3274.50;71.40
76305;DHT22;65111;50.536;19.204;2023-02-10T01:35:04;-3274.40;71.80
76305;DHT22;65111;50.536;19.204;2023-02-10T01:37:30;-3274.40;71.80
76305;DHT22;65111;50.536;19.204;2023-02-10T01:39:56;-3274.30;72.00
76305;DHT22;65111;50.536;19.204;2023-02-10T01:42:22;-3274.20;71.90
76305;DHT22;65111;50.536;19.204;2023-02-10T01:47:14;-3274.50;72.10
76305;DHT22;65111;50.536;19.204;2023-02-10T01:49:47;-3274.30;72.20
76305;DHT22;65111;50.536;19.204;2023-02-10T01:52:24;-3274.20;72.30
76305;DHT22;65111;50.536;19.204;2023-02-10T01:55:06;-3274.40;72.60
76305;DHT22;65111;50.536;19.204;2023-02-10T01:57:35;-3274.30;72.30
76305;DHT22;65111;50.536;19.204;2023-02-10T02:00:05;-3274.30;72.30
76305;DHT22;65111;50.536;19.204;2023-02-10T02:02:31;-3274.20;72.40
76305;DHT22;65111;50.536;19.204;2023-02-10T02:05:02;-3274.20;72.40
76305;DHT22;65111;50.536;19.204;2023-02-10T02:07:29;-3274.20;72.20
76305;DHT22;65111;50.536;19.204;2023-02-10T02:09:58;-3274.20;72.40
76305;DHT22;65111;50.536;19.204;2023-02-10T02:12:39;-3274.20;72.80
76305;DHT22;65111;50.536;19.204;2023-02-10T02:17:58;-3274.10;72.70
76305;DHT22;65111;50.536;19.204;2023-02-10T02:23:35;-3274.20;72.30
76305;DHT22;65111;50.536;19.204;2023-02-10T02:31:40;-3274.20;72.50
76305;DHT22;65111;50.536;19.204;2023-02-10T02:34:24;-3274.20;72.50
76305;DHT22;65111;50.536;19.204;2023-02-10T02:39:52;-3274.00;72.50
76305;DHT22;65111;50.536;19.204;2023-02-10T02:42:21;-3273.90;72.80
76305;DHT22;65111;50.536;19.204;2023-02-10T02:44:54;-3273.90;73.20
76305;DHT22;65111;50.536;19.204;2023-02-10T02:52:21;-3273.60;73.80
76305;DHT22;65111;50.536;19.204;2023-02-10T02:54:58;-3273.60;74.00
76305;DHT22;65111;50.536;19.204;2023-02-10T02:57:40;-3273.60;74.20
76305;DHT22;65111;50.536;19.204;2023-02-10T03:00:34;-3273.60;74.30
76305;DHT22;65111;50.536;19.204;2023-02-10T03:03:02;-3273.50;74.50
76305;DHT22;65111;50.536;19.204;2023-02-10T03:05:31;-3273.50;74.60
76305;DHT22;65111;50.536;19.204;2023-02-10T03:07:58;-3273.40;74.60
76305;DHT22;65111;50.536;19.204;2023-02-10T03:10:24;-3273.40;74.70
76305;DHT22;65111;50.536;19.204;2023-02-10T03:12:50;-3273.40;74.80
76305;DHT22;65111;50.536;19.204;2023-02-10T03:15:16;-3273.30;75.00
76305;DHT22;65111;50.536;19.204;2023-02-10T03:17:42;-3273.40;75.00
76305;DHT22;65111;50.536;19.204;2023-02-10T03:20:09;-3273.30;75.00
76305;DHT22;65111;50.536;19.204;2023-02-10T03:22:35;-3273.40;75.20
76305;DHT22;65111;50.536;19.204;2023-02-10T03:25:01;-3273.20;75.30
76305;DHT22;65111;50.536;19.204;2023-02-10T03:27:27;-3273.20;75.50
76305;DHT22;65111;50.536;19.204;2023-02-10T03:29:53;-3273.30;75.40
76305;DHT22;65111;50.536;19.204;2023-02-10T03:32:19;-3273.30;75.30
76305;DHT22;65111;50.536;19.204;2023-02-10T03:34:45;-3273.20;75.60
76305;DHT22;65111;50.536;19.204;2023-02-10T03:37:11;-3273.20;75.60
76305;DHT22;65111;50.536;19.204;2023-02-10T03:39:37;-3273.20;75.60
76305;DHT22;65111;50.536;19.204;2023-02-10T03:42:03;-3273.20;75.40
76305;DHT22;65111;50.536;19.204;2023-02-10T03:44:31;-3273.20;75.60
76305;DHT22;65111;50.536;19.204;2023-02-10T03:46:56;-3273.10;75.80
76305;DHT22;65111;50.536;19.204;2023-02-10T03:49:22;-3273.10;75.80
76305;DHT22;65111;50.536;19.204;2023-02-10T03:51:48;-3273.00;75.70
76305;DHT22;65111;50.536;19.204;2023-02-10T03:54:14;-3272.90;75.80
76305;DHT22;65111;50.536;19.204;2023-02-10T03:56:40;-3273.00;76.10
76305;DHT22;65111;50.536;19.204;2023-02-10T03:59:06;-3273.00;76.20
76305;DHT22;65111;50.536;19.204;2023-02-10T04:01:32;-3272.90;76.10
76305;DHT22;65111;50.536;19.204;2023-02-10T04:03:59;-3273.00;76.10
76305;DHT22;65111;50.536;19.204;2023-02-10T04:06:26;-3272.90;76.10
76305;DHT22;65111;50.536;19.204;2023-02-10T04:08:52;-3272.90;76.10
76305;DHT22;65111;50.536;19.204;2023-02-10T04:11:18;-3272.80;76.30
76305;DHT22;65111;50.536;19.204;2023-02-10T04:13:44;-3272.90;76.40
76305;DHT22;65111;50.536;19.204;2023-02-10T04:16:13;-3272.80;76.10
76305;DHT22;65111;50.536;19.204;2023-02-10T04:18:40;-3272.80;76.20
76305;DHT22;65111;50.536;19.204;2023-02-10T04:21:09;-3272.70;76.20
76305;DHT22;65111;50.536;19.204;2023-02-10T04:23:36;-3272.60;76.30
76305;DHT22;65111;50.536;19.204;2023-02-10T04:26:03;-3272.60;76.30
76305;DHT22;65111;50.536;19.204;2023-02-10T04:28:29;-3272.40;76.30
76305;DHT22;65111;50.536;19.204;2023-02-10T04:30:58;-3272.40;76.60
76305;DHT22;65111;50.536;19.204;2023-02-10T04:33:25;-3272.30;76.70
76305;DHT22;65111;50.536;19.204;2023-02-10T04:35:52;-3272.20;76.80
76305;DHT22;65111;50.536;19.204;2023-02-10T04:38:18;-3272.30;77.20
76305;DHT22;65111;50.536;19.204;2023-02-10T04:40:44;-3272.20;77.40
76305;DHT22;65111;50.536;19.204;2023-02-10T04:43:12;-3272.10;77.40
76305;DHT22;65111;50.536;19.204;2023-02-10T04:45:40;-3272.10;77.50
76305;DHT22;65111;50.536;19.204;2023-02-10T04:48:06;-3272.10;77.70
76305;DHT22;65111;50.536;19.204;2023-02-10T04:50:32;-3272.00;77.40
76305;DHT22;65111;50.536;19.204;2023-02-10T04:52:59;-3272.00;77.60
76305;DHT22;65111;50.536;19.204;2023-02-10T04:55:25;-3272.00;77.90
76305;DHT22;65111;50.536;19.204;2023-02-10T04:57:50;-3271.90;78.00
76305;DHT22;65111;50.536;19.204;2023-02-10T05:00:16;-3271.90;78.00
76305;DHT22;65111;50.536;19.204;2023-02-10T05:02:43;-3271.90;78.10
76305;DHT22;65111;50.536;19.204;2023-02-10T05:05:10;-3271.80;78.30
76305;DHT22;65111;50.536;19.204;2023-02-10T05:07:38;-3271.80;78.30
76305;DHT22;65111;50.536;19.204;2023-02-10T05:10:04;-3271.80;78.30
76305;DHT22;65111;50.536;19.204;2023-02-10T05:12:30;-3271.80;78.40
76305;DHT22;65111;50.536;19.204;2023-02-10T05:14:56;-3271.80;78.40
76305;DHT22;65111;50.536;19.204;2023-02-10T05:17:22;-3271.70;78.30
76305;DHT22;65111;50.536;19.204;2023-02-10T05:19:48;-3271.70;78.30
76305;DHT22;65111;50.536;19.204;2023-02-10T05:22:14;-3271.70;78.50
76305;DHT22;65111;50.536;19.204;2023-02-10T05:24:40;-3271.60;78.60
76305;DHT22;65111;50.536;19.204;2023-02-10T05:27:07;-3271.50;78.90
76305;DHT22;65111;50.536;19.204;2023-02-10T05:29:33;-3271.60;79.00
76305;DHT22;65111;50.536;19.204;2023-02-10T05:31:59;-3271.70;78.70
76305;DHT22;65111;50.536;19.204;2023-02-10T05:34:26;-3271.60;78.70
76305;DHT22;65111;50.536;19.204;2023-02-10T05:36:52;-3271.50;79.00
76305;DHT22;65111;50.536;19.204;2023-02-10T05:39:18;-3271.50;79.10
76305;DHT22;65111;50.536;19.204;2023-02-10T05:41:56;-3271.50;79.10
76305;DHT22;65111;50.536;19.204;2023-02-10T05:44:24;-3271.60;79.20
76305;DHT22;65111;50.536;19.204;2023-02-10T05:46:50;-3271.60;79.30
76305;DHT22;65111;50.536;19.204;2023-02-10T05:49:17;-3271.60;79.20
76305;DHT22;65111;50.536;19.204;2023-02-10T05:51:44;-3271.70;79.10
76305;DHT22;65111;50.536;19.204;2023-02-10T05:54:10;-3271.60;78.80
76305;DHT22;65111;50.536;19.204;2023-02-10T05:56:37;-3271.70;79.00
76305;DHT22;65111;50.536;19.204;2023-02-10T05:59:03;-3271.70;79.00
76305;DHT22;65111;50.536;19.204;2023-02-10T06:01:29;-3271.70;78.80
76305;DHT22;65111;50.536;19.204;2023-02-10T06:03:55;-3271.70;78.70
76305;DHT22;65111;50.536;19.204;2023-02-10T06:06:21;-3271.60;78.70
76305;DHT22;65111;50.536;19.204;2023-02-10T06:08:47;-3271.70;78.80
76305;DHT22;65111;50.536;19.204;2023-02-10T06:11:13;-3271.70;78.80
76305;DHT22;65111;50.536;19.204;2023-02-10T06:13:40;-3271.70;79.00
76305;DHT22;65111;50.536;19.204;2023-02-10T06:16:08;-3271.70;79.10
76305;DHT22;65111;50.536;19.204;2023-02-10T06:18:34;-3271.80;79.00
76305;DHT22;65111;50.536;19.204;2023-02-10T06:21:00;-3271.90;78.80
76305;DHT22;65111;50.536;19.204;2023-02-10T06:23:26;-3272.00;79.00
76305;DHT22;65111;50.536;19.204;2023-02-10T06:25:52;-3272.10;78.80
76305;DHT22;65111;50.536;19.204;2023-02-10T06:28:27;-3272.30;78.10
76305;DHT22;65111;50.536;19.204;2023-02-10T06:30:54;-3272.50;77.60
76305;DHT22;65111;50.536;19.204;2023-02-10T06:33:20;-3272.60;77.20
76305;DHT22;65111;50.536;19.204;2023-02-10T06:35:47;-3272.70;76.90
76305;DHT22;65111;50.536;19.204;2023-02-10T06:38:13;-3272.70;76.60
76305;DHT22;65111;50.536;19.204;2023-02-10T06:40:39;-3272.80;76.50
76305;DHT22;65111;50.536;19.204;2023-02-10T06:43:05;-3273.00;76.50
76305;DHT22;65111;50.536;19.204;2023-02-10T06:45:31;-3273.30;75.90
76305;DHT22;65111;50.536;19.204;2023-02-10T06:47:58;-3273.60;74.80
76305;DHT22;65111;50.536;19.204;2023-02-10T06:50:24;-3274.20;73.60
76305;DHT22;65111;50.536;19.204;2023-02-10T06:52:50;-3274.30;72.40
76305;DHT22;65111;50.536;19.204;2023-02-10T06:55:16;-3274.70;71.00
76305;DHT22;65111;50.536;19.204;2023-02-10T06:57:42;-3275.00;70.60
76305;DHT22;65111;50.536;19.204;2023-02-10T07:00:13;-3275.10;69.80
76305;DHT22;65111;50.536;19.204;2023-02-10T07:02:40;-3275.10;69.60
76305;DHT22;65111;50.536;19.204;2023-02-10T07:05:07;-3275.50;68.50
76305;DHT22;65111;50.536;19.204;2023-02-10T07:07:35;-3275.60;68.50
76305;DHT22;65111;50.536;19.204;2023-02-10T07:10:01;-3275.80;67.50
76305;DHT22;65111;50.536;19.204;2023-02-10T07:12:27;-3276.40;67.20
76305;DHT22;65111;50.536;19.204;2023-02-10T07:14:53;0.20;66.10
76305;DHT22;65111;50.536;19.204;2023-02-10T07:17:19;0.80;64.50
76305;DHT22;65111;50.536;19.204;2023-02-10T07:19:46;1.70;62.50
76305;DHT22;65111;50.536;19.204;2023-02-10T07:22:12;2.50;59.80
76305;DHT22;65111;50.536;19.204;2023-02-10T07:24:38;3.80;56.80
76305;DHT22;65111;50.536;19.204;2023-02-10T07:27:04;4.50;54.60
76305;DHT22;65111;50.536;19.204;2023-02-10T07:29:30;5.50;52.70
76305;DHT22;65111;50.536;19.204;2023-02-10T07:31:56;6.20;50.30
76305;DHT22;65111;50.536;19.204;2023-02-10T07:34:26;7.20;49.00
76305;DHT22;65111;50.536;19.204;2023-02-10T07:36:53;8.00;47.30
76305;DHT22;65111;50.536;19.204;2023-02-10T07:39:20;8.80;45.30
76305;DHT22;65111;50.536;19.204;2023-02-10T07:41:46;9.30;44.40
76305;DHT22;65111;50.536;19.204;2023-02-10T07:44:12;9.90;43.80
76305;DHT22;65111;50.536;19.204;2023-02-10T07:46:38;10.20;43.20
76305;DHT22;65111;50.536;19.204;2023-02-10T07:49:04;10.80;42.10
76305;DHT22;65111;50.536;19.204;2023-02-10T07:51:30;11.30;41.80
76305;DHT22;65111;50.536;19.204;2023-02-10T07:53:56;12.10;41.80
76305;DHT22;65111;50.536;19.204;2023-02-10T07:56:22;13.00;39.80
76305;DHT22;65111;50.536;19.204;2023-02-10T07:58:48;13.60;39.20
76305;DHT22;65111;50.536;19.204;2023-02-10T08:01:14;13.90;38.70
76305;DHT22;65111;50.536;19.204;2023-02-10T08:03:40;14.40;37.90
76305;DHT22;65111;50.536;19.204;2023-02-10T08:06:06;15.00;37.70
76305;DHT22;65111;50.536;19.204;2023-02-10T08:08:32;15.60;36.90
76305;DHT22;65111;50.536;19.204;2023-02-10T08:10:58;16.30;36.20
76305;DHT22;65111;50.536;19.204;2023-02-10T08:13:25;16.60;35.70
76305;DHT22;65111;50.536;19.204;2023-02-10T08:15:53;16.60;35.90
76305;DHT22;65111;50.536;19.204;2023-02-10T08:18:18;16.40;36.00
76305;DHT22;65111;50.536;19.204;2023-02-10T08:20:44;16.30;35.70
76305;DHT22;65111;50.536;19.204;2023-02-10T08:23:15;15.80;35.40
76305;DHT22;65111;50.536;19.204;2023-02-10T08:25:41;15.20;36.40
76305;DHT22;65111;50.536;19.204;2023-02-10T08:28:07;14.90;36.70
76305;DHT22;65111;50.536;19.204;2023-02-10T08:30:34;14.30;36.70
76305;DHT22;65111;50.536;19.204;2023-02-10T08:33:00;14.10;37.10
76305;DHT22;65111;50.536;19.204;2023-02-10T08:35:26;14.20;37.10
76305;DHT22;65111;50.536;19.204;2023-02-10T08:37:52;14.00;36.80
76305;DHT22;65111;50.536;19.204;2023-02-10T08:40:19;14.00;36.90
76305;DHT22;65111;50.536;19.204;2023-02-10T08:42:45;13.70;36.90
76305;DHT22;65111;50.536;19.204;2023-02-10T08:45:11;13.20;37.10
76305;DHT22;65111;50.536;19.204;2023-02-10T08:47:37;12.30;38.00
76305;DHT22;65111;50.536;19.204;2023-02-10T08:50:03;11.20;38.60
76305;DHT22;65111;50.536;19.204;2023-02-10T08:52:29;10.90;39.20
76305;DHT22;65111;50.536;19.204;2023-02-10T08:54:56;10.70;39.60
76305;DHT22;65111;50.536;19.204;2023-02-10T08:57:22;10.40;39.90
76305;DHT22;65111;50.536;19.204;2023-02-10T08:59:48;10.20;40.10
76305;DHT22;65111;50.536;19.204;2023-02-10T09:02:14;10.40;40.20
76305;DHT22;65111;50.536;19.204;2023-02-10T09:04:41;10.80;40.20
76305;DHT22;65111;50.536;19.204;2023-02-10T09:07:07;11.30;39.80
76305;DHT22;65111;50.536;19.204;2023-02-10T09:09:40;11.60;39.20
76305;DHT22;65111;50.536;19.204;2023-02-10T09:12:07;11.20;39.40
76305;DHT22;65111;50.536;19.204;2023-02-10T09:14:36;10.40;39.60
76305;DHT22;65111;50.536;19.204;2023-02-10T09:17:02;9.80;40.50
76305;DHT22;65111;50.536;19.204;2023-02-10T09:19:28;9.40;41.10
76305;DHT22;65111;50.536;19.204;2023-02-10T09:21:54;9.40;41.40
76305;DHT22;65111;50.536;19.204;2023-02-10T09:24:22;9.30;41.30
76305;DHT22;65111;50.536;19.204;2023-02-10T09:26:49;9.20;41.70
76305;DHT22;65111;50.536;19.204;2023-02-10T09:29:15;8.80;41.90
76305;DHT22;65111;50.536;19.204;2023-02-10T09:31:41;8.20;42.40
76305;DHT22;65111;50.536;19.204;2023-02-10T09:34:08;7.70;43.30
76305;DHT22;65111;50.536;19.204;2023-02-10T09:36:34;6.90;44.70
76305;DHT22;65111;50.536;19.204;2023-02-10T09:39:00;6.50;45.20
76305;DHT22;65111;50.536;19.204;2023-02-10T09:46:55;6.20;46.50
76305;DHT22;65111;50.536;19.204;2023-02-10T09:54:58;6.20;46.60
76305;DHT22;65111;50.536;19.204;2023-02-10T09:57:47;6.10;47.00
76305;DHT22;65111;50.536;19.204;2023-02-10T10:00:25;6.00;47.40
76305;DHT22;65111;50.536;19.204;2023-02-10T10:02:54;6.30;47.10
76305;DHT22;65111;50.536;19.204;2023-02-10T10:08:33;6.50;46.70
76305;DHT22;65111;50.536;19.204;2023-02-10T10:11:06;6.70;46.70
76305;DHT22;65111;50.536;19.204;2023-02-10T10:13:35;6.70;46.60
76305;DHT22;65111;50.536;19.204;2023-02-10T10:19:06;7.10;46.90
76305;DHT22;65111;50.536;19.204;2023-02-10T10:21:46;7.10;46.40
76305;DHT22;65111;50.536;19.204;2023-02-10T10:30:20;6.90;46.80
76305;DHT22;65111;50.536;19.204;2023-02-10T10:33:02;7.10;46.50
76305;DHT22;65111;50.536;19.204;2023-02-10T10:35:38;6.90;46.60
76305;DHT22;65111;50.536;19.204;2023-02-10T10:38:25;7.10;46.50
76305;DHT22;65111;50.536;19.204;2023-02-10T10:41:00;7.30;46.30
76305;DHT22;65111;50.536;19.204;2023-02-10T10:43:31;7.50;46.40
76305;DHT22;65111;50.536;19.204;2023-02-10T10:46:05;7.80;46.30
76305;DHT22;65111;50.536;19.204;2023-02-10T10:48:33;8.00;45.60
76305;DHT22;65111;50.536;19.204;2023-02-10T10:51:03;7.90;45.50
76305;DHT22;65111;50.536;19.204;2023-02-10T11:01:40;7.00;46.60
76305;DHT22;65111;50.536;19.204;2023-02-10T11:04:24;7.00;46.50
76305;DHT22;65111;50.536;19.204;2023-02-10T11:06:53;6.90;47.10
76305;DHT22;65111;50.536;19.204;2023-02-10T11:09:28;6.80;47.30
76305;DHT22;65111;50.536;19.204;2023-02-10T11:12:19;6.90;47.50
76305;DHT22;65111;50.536;19.204;2023-02-10T11:14:49;6.90;47.60
76305;DHT22;65111;50.536;19.204;2023-02-10T11:17:24;6.80;47.80
76305;DHT22;65111;50.536;19.204;2023-02-10T11:20:00;6.70;47.90
76305;DHT22;65111;50.536;19.204;2023-02-10T11:22:27;6.40;48.30
76305;DHT22;65111;50.536;19.204;2023-02-10T11:24:58;6.30;48.70
76305;DHT22;65111;50.536;19.204;2023-02-10T11:27:24;6.30;49.20
76305;DHT22;65111;50.536;19.204;2023-02-10T11:29:56;6.10;49.50
76305;DHT22;65111;50.536;19.204;2023-02-10T11:32:27;5.90;49.90
76305;DHT22;65111;50.536;19.204;2023-02-10T11:34:56;5.80;50.30
76305;DHT22;65111;50.536;19.204;2023-02-10T11:37:28;5.70;50.90
76305;DHT22;65111;50.536;19.204;2023-02-10T11:39:56;5.60;50.90
76305;DHT22;65111;50.536;19.204;2023-02-10T11:42:24;5.40;51.10
76305;DHT22;65111;50.536;19.204;2023-02-10T11:47:47;5.40;51.60
76305;DHT22;65111;50.536;19.204;2023-02-10T11:50:22;5.30;51.70
76305;DHT22;65111;50.536;19.204;2023-02-10T11:52:49;5.40;51.80
76305;DHT22;65111;50.536;19.204;2023-02-10T11:55:16;5.30;52.00
76305;DHT22;65111;50.536;19.204;2023-02-10T12:01:09;5.30;52.30
76305;DHT22;65111;50.536;19.204;2023-02-10T12:04:00;5.40;52.60
76305;DHT22;65111;50.536;19.204;2023-02-10T12:06:36;5.30;52.40
76305;DHT22;65111;50.536;19.204;2023-02-10T12:11:45;5.40;52.40
76305;DHT22;65111;50.536;19.204;2023-02-10T12:31:09;5.90;52.40
76305;DHT22;65111;50.536;19.204;2023-02-10T12:36:49;6.00;52.70
76305;DHT22;65111;50.536;19.204;2023-02-10T12:54:13;6.10;53.20
76305;DHT22;65111;50.536;19.204;2023-02-10T13:02:45;6.50;52.60
76305;DHT22;65111;50.536;19.204;2023-02-10T13:05:21;6.80;52.80
76305;DHT22;65111;50.536;19.204;2023-02-10T13:07:53;7.00;52.30
76305;DHT22;65111;50.536;19.204;2023-02-10T13:10:39;7.30;52.00
76305;DHT22;65111;50.536;19.204;2023-02-10T13:13:17;7.80;51.30
76305;DHT22;65111;50.536;19.204;2023-02-10T13:15:53;8.10;50.70
76305;DHT22;65111;50.536;19.204;2023-02-10T13:18:25;8.50;50.40
76305;DHT22;65111;50.536;19.204;2023-02-10T13:21:49;8.90;49.40
76305;DHT22;65111;50.536;19.204;2023-02-10T13:26:57;9.00;48.70
76305;DHT22;65111;50.536;19.204;2023-02-10T13:34:35;7.40;50.90
76305;DHT22;65111;50.536;19.204;2023-02-10T13:37:14;6.90;51.70
76305;DHT22;65111;50.536;19.204;2023-02-10T13:39:59;6.50;52.40
76305;DHT22;65111;50.536;19.204;2023-02-10T13:42:31;6.20;53.40
76305;DHT22;65111;50.536;19.204;2023-02-10T13:56:04;5.10;56.20
76305;DHT22;65111;50.536;19.204;2023-02-10T13:58:53;4.90;56.80
76305;DHT22;65111;50.536;19.204;2023-02-10T14:01:45;4.60;57.10
76305;DHT22;65111;50.536;19.204;2023-02-10T14:06:47;4.40;58.00
76305;DHT22;65111;50.536;19.204;2023-02-10T14:11:58;4.30;58.30
76305;DHT22;65111;50.536;19.204;2023-02-10T14:14:29;4.40;58.30
76305;DHT22;65111;50.536;19.204;2023-02-10T14:19:37;4.40;58.60
76305;DHT22;65111;50.536;19.204;2023-02-10T14:22:05;4.40;58.60
76305;DHT22;65111;50.536;19.204;2023-02-10T14:24:35;4.10;59.20
76305;DHT22;65111;50.536;19.204;2023-02-10T14:27:04;4.10;59.30
76305;DHT22;65111;50.536;19.204;2023-02-10T14:29:33;4.20;59.70
76305;DHT22;65111;50.536;19.204;2023-02-10T14:32:03;4.00;60.40
76305;DHT22;65111;50.536;19.204;2023-02-10T14:34:33;3.90;61.10
76305;DHT22;65111;50.536;19.204;2023-02-10T14:37:16;3.60;61.70
76305;DHT22;65111;50.536;19.204;2023-02-10T14:39:50;3.60;62.20
76305;DHT22;65111;50.536;19.204;2023-02-10T14:42:16;3.40;63.10
76305;DHT22;65111;50.536;19.204;2023-02-10T14:44:49;3.20;63.50
76305;DHT22;65111;50.536;19.204;2023-02-10T14:47:24;3.20;64.20
76305;DHT22;65111;50.536;19.204;2023-02-10T14:49:55;3.10;64.40
76305;DHT22;65111;50.536;19.204;2023-02-10T14:54:53;2.90;64.90
76305;DHT22;65111;50.536;19.204;2023-02-10T14:57:21;2.80;65.70
76305;DHT22;65111;50.536;19.204;2023-02-10T14:59:54;2.80;65.80
76305;DHT22;65111;50.536;19.204;2023-02-10T15:02:23;2.70;66.10
76305;DHT22;65111;50.536;19.204;2023-02-10T15:04:53;2.50;66.80
76305;DHT22;65111;50.536;19.204;2023-02-10T15:07:44;2.70;67.40
76305;DHT22;65111;50.536;19.204;2023-02-10T15:12:57;2.30;68.60
76305;DHT22;65111;50.536;19.204;2023-02-10T15:18:00;2.20;68.90
76305;DHT22;65111;50.536;19.204;2023-02-10T15:20:30;2.00;69.30
76305;DHT22;65111;50.536;19.204;2023-02-10T15:33:53;2.10;71.30
76305;DHT22;65111;50.536;19.204;2023-02-10T15:36:24;1.90;71.30
76305;DHT22;65111;50.536;19.204;2023-02-10T15:41:31;1.80;72.00
76305;DHT22;65111;50.536;19.204;2023-02-10T15:43:59;1.80;72.20
76305;DHT22;65111;50.536;19.204;2023-02-10T15:46:27;2.00;72.30
76305;DHT22;65111;50.536;19.204;2023-02-10T15:49:07;1.90;72.40
76305;DHT22;65111;50.536;19.204;2023-02-10T15:51:39;1.90;72.60
76305;DHT22;65111;50.536;19.204;2023-02-10T15:54:05;1.90;72.50
76305;DHT22;65111;50.536;19.204;2023-02-10T15:56:33;1.70;72.50
76305;DHT22;65111;50.536;19.204;2023-02-10T15:58:59;1.70;72.60
76305;DHT22;65111;50.536;19.204;2023-02-10T16:01:25;1.70;72.10
76305;DHT22;65111;50.536;19.204;2023-02-10T16:03:51;1.60;72.20
76305;DHT22;65111;50.536;19.204;2023-02-10T16:06:17;1.50;72.40
76305;DHT22;65111;50.536;19.204;2023-02-10T16:08:44;1.60;72.50
76305;DHT22;65111;50.536;19.204;2023-02-10T16:11:11;1.70;72.60
76305;DHT22;65111;50.536;19.204;2023-02-10T16:13:37;1.50;72.90
76305;DHT22;65111;50.536;19.204;2023-02-10T16:16:05;1.60;72.90
76305;DHT22;65111;50.536;19.204;2023-02-10T16:18:37;1.50;73.30
76305;DHT22;65111;50.536;19.204;2023-02-10T16:21:03;1.50;73.30
76305;DHT22;65111;50.536;19.204;2023-02-10T16:23:30;1.50;73.30
76305;DHT22;65111;50.536;19.204;2023-02-10T16:25:56;1.50;73.30
76305;DHT22;65111;50.536;19.204;2023-02-10T16:28:22;1.60;73.40
76305;DHT22;65111;50.536;19.204;2023-02-10T16:30:48;1.50;73.60
76305;DHT22;65111;50.536;19.204;2023-02-10T16:33:14;1.50;73.50
76305;DHT22;65111;50.536;19.204;2023-02-10T16:35:43;1.50;73.50
76305;DHT22;65111;50.536;19.204;2023-02-10T16:38:09;1.60;73.30
76305;DHT22;65111;50.536;19.204;2023-02-10T16:40:37;1.50;73.50
76305;DHT22;65111;50.536;19.204;2023-02-10T16:43:07;1.50;74.10
76305;DHT22;65111;50.536;19.204;2023-02-10T16:45:34;1.40;73.90
76305;DHT22;65111;50.536;19.204;2023-02-10T16:48:01;1.60;73.80
76305;DHT22;65111;50.536;19.204;2023-02-10T16:50:37;1.50;74.10
76305;DHT22;65111;50.536;19.204;2023-02-10T16:53:04;1.50;74.10
76305;DHT22;65111;50.536;19.204;2023-02-10T16:55:34;1.50;74.20
76305;DHT22;65111;50.536;19.204;2023-02-10T16:58:01;1.60;74.30
76305;DHT22;65111;50.536;19.204;2023-02-10T17:00:27;1.30;74.00
76305;DHT22;65111;50.536;19.204;2023-02-10T17:02:54;1.40;74.00
76305;DHT22;65111;50.536;19.204;2023-02-10T17:05:21;1.60;74.10
76305;DHT22;65111;50.536;19.204;2023-02-10T17:07:47;1.40;74.20
76305;DHT22;65111;50.536;19.204;2023-02-10T17:10:17;1.40;74.20
76305;DHT22;65111;50.536;19.204;2023-02-10T17:12:43;1.40;74.20
76305;DHT22;65111;50.536;19.204;2023-02-10T17:15:10;1.30;74.00
76305;DHT22;65111;50.536;19.204;2023-02-10T17:17:37;1.50;74.00
76305;DHT22;65111;50.536;19.204;2023-02-10T17:20:04;1.40;74.20
76305;DHT22;65111;50.536;19.204;2023-02-10T17:22:30;1.30;74.10
76305;DHT22;65111;50.536;19.204;2023-02-10T17:24:56;1.30;74.20
76305;DHT22;65111;50.536;19.204;2023-02-10T17:27:22;1.40;74.00
76305;DHT22;65111;50.536;19.204;2023-02-10T17:29:50;1.50;74.00
76305;DHT22;65111;50.536;19.204;2023-02-10T17:32:16;1.40;73.80
76305;DHT22;65111;50.536;19.204;2023-02-10T17:34:42;1.60;73.60
76305;DHT22;65111;50.536;19.204;2023-02-10T17:37:08;1.40;73.30
76305;DHT22;65111;50.536;19.204;2023-02-10T17:39:38;1.60;73.30
76305;DHT22;65111;50.536;19.204;2023-02-10T17:42:07;1.40;73.20
76305;DHT22;65111;50.536;19.204;2023-02-10T17:44:33;1.50;73.20